Forside
METAR-TAF:

METAR-TAF

Lufthavne :

El Salvador, El Salvador

Breddekreds: 13-26N, længdekreds: 089-03W, højde: 25 m

Aktuelle vejr

Denne rapport blev lavet for 49 minutter siden, kl. 08:50 UTC
Vind 2 kt fra varierende retninger
Temperatur 22°C
Fugtighed 88%
Tryk 1011 hPa
Sigt 10 km eller mere
ingen skyer under 1500m og ingen cumulonimbus

METAR: MSLP 200850Z VRB02KT CAVOK 22/20 Q1010 A2984 NOSIG

Tid: 03:39 (09:39 UTC)

Vejrudsigter

Denne rapport blev lavet for 6 timer og 14 minutter siden, kl. 03:25 UTC
Foreløbig gælder fra 20 på 06 UTC til 21 på 06 UTC
Vind 7 kt fra nordnordøst
Sigt 10 km eller mere
ingen skyer under 1500m og ingen cumulonimbus
Fra 20 på 1800 UTC
Vind 10 kt fra sydsydvest med vindstød på up til 20 kt
Sigt 10 km eller mere
Nogle få skyer i en højde af 4300 ft
Fra 21 på 0000 UTC
Vind 5 kt fra sydsydvest
Sigt 10 km eller mere
Nogle få skyer i en højde af 7000 ft

TAF: MSLP 200325Z 2006/2106 03007KT CAVOK TX36/2018Z TN24/2012Z FM201800 21010G20KT 9999 FEW043 FM210000 21005KT 9999 FEW070

Vejrobservationer og prognoser fra mere end 4000 lufthavne (METAR og TAF).

De gule og røde prikker repræsenterer de meteorologiske stationer.

Flyt musen over at se navnet på stationen.

Så klik over at se vejr observationer og prognoser.

At skifte det kort: Klik på de grønne knapper med et sort kors for at zoome ind; på den grønne knap med en bindestreg for at zoome ud; eller på de grønne pile for tilstødende kort.


METAR-TAF: